sensor_id;sensor_type;location;lat;lon;timestamp;P1;durP1;ratioP1;P2;durP2;ratioP2
48665;SDS011;34452;50.796;4.994;2022-10-31T00:00:23;20.57;;;9.60;;
48665;SDS011;34452;50.796;4.994;2022-10-31T00:02:49;21.20;;;11.10;;
48665;SDS011;34452;50.796;4.994;2022-10-31T00:05:15;26.07;;;10.20;;
48665;SDS011;34452;50.796;4.994;2022-10-31T00:07:40;20.45;;;10.65;;
48665;SDS011;34452;50.796;4.994;2022-10-31T00:10:06;16.35;;;9.27;;
48665;SDS011;34452;50.796;4.994;2022-10-31T00:14:58;26.05;;;10.20;;
48665;SDS011;34452;50.796;4.994;2022-10-31T00:17:24;24.37;;;11.50;;
48665;SDS011;34452;50.796;4.994;2022-10-31T00:19:49;26.23;;;12.50;;
48665;SDS011;34452;50.796;4.994;2022-10-31T00:22:15;26.73;;;14.00;;
48665;SDS011;34452;50.796;4.994;2022-10-31T00:24:41;27.03;;;13.37;;
48665;SDS011;34452;50.796;4.994;2022-10-31T00:27:06;25.00;;;11.53;;
48665;SDS011;34452;50.796;4.994;2022-10-31T00:29:32;30.88;;;12.40;;
48665;SDS011;34452;50.796;4.994;2022-10-31T00:31:58;27.98;;;13.30;;
48665;SDS011;34452;50.796;4.994;2022-10-31T00:34:23;22.10;;;12.45;;
48665;SDS011;34452;50.796;4.994;2022-10-31T00:36:49;30.07;;;14.20;;
48665;SDS011;34452;50.796;4.994;2022-10-31T00:39:15;22.80;;;11.50;;
48665;SDS011;34452;50.796;4.994;2022-10-31T00:41:40;25.13;;;12.70;;
48665;SDS011;34452;50.796;4.994;2022-10-31T00:44:06;29.73;;;13.77;;
48665;SDS011;34452;50.796;4.994;2022-10-31T00:46:32;24.17;;;13.00;;
48665;SDS011;34452;50.796;4.994;2022-10-31T00:48:58;31.38;;;13.40;;
48665;SDS011;34452;50.796;4.994;2022-10-31T00:51:23;27.27;;;13.57;;
48665;SDS011;34452;50.796;4.994;2022-10-31T00:53:49;23.80;;;13.38;;
48665;SDS011;34452;50.796;4.994;2022-10-31T00:56:15;27.60;;;13.17;;
48665;SDS011;34452;50.796;4.994;2022-10-31T00:58:40;27.63;;;12.90;;
48665;SDS011;34452;50.796;4.994;2022-10-31T01:01:06;25.87;;;12.83;;
48665;SDS011;34452;50.796;4.994;2022-10-31T01:03:32;33.95;;;14.88;;
48665;SDS011;34452;50.796;4.994;2022-10-31T01:06:03;35.33;;;15.63;;
48665;SDS011;34452;50.796;4.994;2022-10-31T01:08:31;34.90;;;15.52;;
48665;SDS011;34452;50.796;4.994;2022-10-31T01:11:07;25.95;;;14.07;;
48665;SDS011;34452;50.796;4.994;2022-10-31T01:13:42;30.80;;;14.75;;
48665;SDS011;34452;50.796;4.994;2022-10-31T01:16:10;27.77;;;14.27;;
48665;SDS011;34452;50.796;4.994;2022-10-31T01:18:38;28.48;;;13.88;;
48665;SDS011;34452;50.796;4.994;2022-10-31T01:21:08;29.27;;;14.57;;
48665;SDS011;34452;50.796;4.994;2022-10-31T01:23:35;25.48;;;12.70;;
48665;SDS011;34452;50.796;4.994;2022-10-31T01:26:05;37.20;;;14.93;;
48665;SDS011;34452;50.796;4.994;2022-10-31T01:28:36;34.03;;;14.38;;
48665;SDS011;34452;50.796;4.994;2022-10-31T01:31:07;25.45;;;12.85;;
48665;SDS011;34452;50.796;4.994;2022-10-31T01:33:33;24.13;;;12.30;;
48665;SDS011;34452;50.796;4.994;2022-10-31T01:36:00;31.63;;;13.02;;
48665;SDS011;34452;50.796;4.994;2022-10-31T01:38:26;23.25;;;12.60;;
48665;SDS011;34452;50.796;4.994;2022-10-31T01:40:52;36.10;;;14.57;;
48665;SDS011;34452;50.796;4.994;2022-10-31T01:43:18;29.67;;;14.57;;
48665;SDS011;34452;50.796;4.994;2022-10-31T01:45:44;29.98;;;14.25;;
48665;SDS011;34452;50.796;4.994;2022-10-31T01:48:16;31.42;;;14.90;;
48665;SDS011;34452;50.796;4.994;2022-10-31T01:50:45;29.52;;;14.80;;
48665;SDS011;34452;50.796;4.994;2022-10-31T01:53:13;30.40;;;14.10;;
48665;SDS011;34452;50.796;4.994;2022-10-31T01:55:41;29.70;;;14.07;;
48665;SDS011;34452;50.796;4.994;2022-10-31T01:58:13;24.00;;;12.95;;
48665;SDS011;34452;50.796;4.994;2022-10-31T02:00:45;31.25;;;13.15;;
48665;SDS011;34452;50.796;4.994;2022-10-31T02:03:14;32.90;;;14.07;;
48665;SDS011;34452;50.796;4.994;2022-10-31T02:05:41;31.35;;;14.45;;
48665;SDS011;34452;50.796;4.994;2022-10-31T02:08:11;26.50;;;11.70;;
48665;SDS011;34452;50.796;4.994;2022-10-31T02:10:59;26.83;;;12.32;;
48665;SDS011;34452;50.796;4.994;2022-10-31T02:13:26;21.67;;;11.80;;
48665;SDS011;34452;50.796;4.994;2022-10-31T02:15:55;25.33;;;12.30;;
48665;SDS011;34452;50.796;4.994;2022-10-31T02:18:24;24.40;;;11.95;;
48665;SDS011;34452;50.796;4.994;2022-10-31T02:41:04;36.97;;;14.75;;
48665;SDS011;34452;50.796;4.994;2022-10-31T02:49:00;29.58;;;13.07;;
48665;SDS011;34452;50.796;4.994;2022-10-31T02:54:01;29.75;;;13.40;;
48665;SDS011;34452;50.796;4.994;2022-10-31T02:56:27;35.13;;;14.57;;
48665;SDS011;34452;50.796;4.994;2022-10-31T02:58:57;33.40;;;13.45;;
48665;SDS011;34452;50.796;4.994;2022-10-31T03:12:49;18.77;;;11.00;;
48665;SDS011;34452;50.796;4.994;2022-10-31T03:15:27;19.80;;;11.35;;
48665;SDS011;34452;50.796;4.994;2022-10-31T03:18:11;22.23;;;11.80;;
48665;SDS011;34452;50.796;4.994;2022-10-31T03:20:44;26.85;;;12.27;;
48665;SDS011;34452;50.796;4.994;2022-10-31T03:23:15;25.70;;;12.93;;
48665;SDS011;34452;50.796;4.994;2022-10-31T03:25:43;31.25;;;12.30;;
48665;SDS011;34452;50.796;4.994;2022-10-31T03:28:12;22.50;;;11.80;;
48665;SDS011;34452;50.796;4.994;2022-10-31T03:30:41;21.25;;;10.82;;
48665;SDS011;34452;50.796;4.994;2022-10-31T03:33:16;26.88;;;12.50;;
48665;SDS011;34452;50.796;4.994;2022-10-31T03:35:47;17.67;;;10.18;;
48665;SDS011;34452;50.796;4.994;2022-10-31T03:38:15;23.23;;;10.85;;
48665;SDS011;34452;50.796;4.994;2022-10-31T03:40:43;21.50;;;10.15;;
48665;SDS011;34452;50.796;4.994;2022-10-31T03:43:13;15.68;;;8.70;;
48665;SDS011;34452;50.796;4.994;2022-10-31T03:45:45;24.63;;;11.40;;
48665;SDS011;34452;50.796;4.994;2022-10-31T03:48:15;18.42;;;9.77;;
48665;SDS011;34452;50.796;4.994;2022-10-31T03:53:24;23.38;;;10.80;;
48665;SDS011;34452;50.796;4.994;2022-10-31T03:56:02;22.48;;;11.95;;
48665;SDS011;34452;50.796;4.994;2022-10-31T03:58:55;17.48;;;10.43;;
48665;SDS011;34452;50.796;4.994;2022-10-31T04:04:02;27.98;;;10.68;;
48665;SDS011;34452;50.796;4.994;2022-10-31T04:06:28;23.80;;;12.27;;
48665;SDS011;34452;50.796;4.994;2022-10-31T04:08:56;23.10;;;12.40;;
48665;SDS011;34452;50.796;4.994;2022-10-31T04:11:27;25.98;;;12.55;;
48665;SDS011;34452;50.796;4.994;2022-10-31T04:13:56;30.27;;;14.02;;
48665;SDS011;34452;50.796;4.994;2022-10-31T04:16:23;29.60;;;13.85;;
48665;SDS011;34452;50.796;4.994;2022-10-31T04:18:51;24.23;;;10.80;;
48665;SDS011;34452;50.796;4.994;2022-10-31T04:21:17;24.10;;;13.00;;
48665;SDS011;34452;50.796;4.994;2022-10-31T04:23:42;21.75;;;11.50;;
48665;SDS011;34452;50.796;4.994;2022-10-31T04:26:10;26.23;;;12.45;;
48665;SDS011;34452;50.796;4.994;2022-10-31T04:28:37;20.88;;;12.30;;
48665;SDS011;34452;50.796;4.994;2022-10-31T04:31:03;21.27;;;11.20;;
48665;SDS011;34452;50.796;4.994;2022-10-31T04:33:28;22.20;;;10.23;;
48665;SDS011;34452;50.796;4.994;2022-10-31T04:35:54;24.23;;;10.57;;
48665;SDS011;34452;50.796;4.994;2022-10-31T04:38:20;17.67;;;9.53;;
48665;SDS011;34452;50.796;4.994;2022-10-31T04:40:45;23.65;;;11.00;;
48665;SDS011;34452;50.796;4.994;2022-10-31T04:43:11;31.37;;;13.37;;
48665;SDS011;34452;50.796;4.994;2022-10-31T04:45:37;34.57;;;14.57;;
48665;SDS011;34452;50.796;4.994;2022-10-31T04:48:02;27.70;;;14.73;;
48665;SDS011;34452;50.796;4.994;2022-10-31T04:50:28;23.00;;;12.38;;
48665;SDS011;34452;50.796;4.994;2022-10-31T04:52:54;24.00;;;11.73;;
48665;SDS011;34452;50.796;4.994;2022-10-31T04:55:20;22.50;;;10.23;;
48665;SDS011;34452;50.796;4.994;2022-10-31T04:57:46;17.77;;;11.03;;
48665;SDS011;34452;50.796;4.994;2022-10-31T05:00:14;17.67;;;9.68;;
48665;SDS011;34452;50.796;4.994;2022-10-31T05:02:44;18.45;;;9.68;;
48665;SDS011;34452;50.796;4.994;2022-10-31T05:05:12;18.90;;;9.45;;
48665;SDS011;34452;50.796;4.994;2022-10-31T05:07:39;17.02;;;10.73;;
48665;SDS011;34452;50.796;4.994;2022-10-31T05:10:07;23.95;;;11.30;;
48665;SDS011;34452;50.796;4.994;2022-10-31T05:12:35;21.50;;;12.55;;
48665;SDS011;34452;50.796;4.994;2022-10-31T05:15:00;23.83;;;11.27;;
48665;SDS011;34452;50.796;4.994;2022-10-31T05:17:26;19.02;;;11.68;;
48665;SDS011;34452;50.796;4.994;2022-10-31T05:19:52;21.33;;;11.37;;
48665;SDS011;34452;50.796;4.994;2022-10-31T05:22:17;20.23;;;10.52;;
48665;SDS011;34452;50.796;4.994;2022-10-31T05:24:43;15.37;;;9.67;;
48665;SDS011;34452;50.796;4.994;2022-10-31T05:27:09;22.80;;;11.63;;
48665;SDS011;34452;50.796;4.994;2022-10-31T05:29:34;20.90;;;11.63;;
48665;SDS011;34452;50.796;4.994;2022-10-31T05:32:00;24.90;;;12.07;;
48665;SDS011;34452;50.796;4.994;2022-10-31T05:34:26;25.50;;;13.33;;
48665;SDS011;34452;50.796;4.994;2022-10-31T05:36:51;31.87;;;15.30;;
48665;SDS011;34452;50.796;4.994;2022-10-31T05:39:17;21.20;;;11.97;;
48665;SDS011;34452;50.796;4.994;2022-10-31T05:41:42;26.50;;;14.40;;
48665;SDS011;34452;50.796;4.994;2022-10-31T05:44:08;22.10;;;13.07;;
48665;SDS011;34452;50.796;4.994;2022-10-31T05:46:34;20.53;;;11.67;;
48665;SDS011;34452;50.796;4.994;2022-10-31T05:48:59;24.47;;;11.83;;
48665;SDS011;34452;50.796;4.994;2022-10-31T05:51:25;27.13;;;12.65;;
48665;SDS011;34452;50.796;4.994;2022-10-31T05:53:51;157.83;;;20.17;;
48665;SDS011;34452;50.796;4.994;2022-10-31T05:56:16;25.70;;;14.33;;
48665;SDS011;34452;50.796;4.994;2022-10-31T05:58:42;19.10;;;10.83;;
48665;SDS011;34452;50.796;4.994;2022-10-31T06:01:08;18.30;;;10.83;;
48665;SDS011;34452;50.796;4.994;2022-10-31T06:03:33;11.77;;;8.90;;
48665;SDS011;34452;50.796;4.994;2022-10-31T06:05:59;15.00;;;8.50;;
48665;SDS011;34452;50.796;4.994;2022-10-31T06:08:25;14.13;;;8.43;;
48665;SDS011;34452;50.796;4.994;2022-10-31T06:10:51;18.65;;;9.70;;
48665;SDS011;34452;50.796;4.994;2022-10-31T06:13:18;17.23;;;9.63;;
48665;SDS011;34452;50.796;4.994;2022-10-31T06:15:44;30.65;;;15.48;;
48665;SDS011;34452;50.796;4.994;2022-10-31T06:18:10;18.90;;;10.67;;
48665;SDS011;34452;50.796;4.994;2022-10-31T06:20:35;22.37;;;11.57;;
48665;SDS011;34452;50.796;4.994;2022-10-31T06:23:02;17.30;;;10.57;;
48665;SDS011;34452;50.796;4.994;2022-10-31T06:25:28;16.23;;;9.75;;
48665;SDS011;34452;50.796;4.994;2022-10-31T06:27:54;19.98;;;9.88;;
48665;SDS011;34452;50.796;4.994;2022-10-31T06:30:20;14.75;;;9.23;;
48665;SDS011;34452;50.796;4.994;2022-10-31T06:32:46;17.48;;;8.00;;
48665;SDS011;34452;50.796;4.994;2022-10-31T06:35:11;24.45;;;10.82;;
48665;SDS011;34452;50.796;4.994;2022-10-31T06:37:37;15.90;;;8.97;;
48665;SDS011;34452;50.796;4.994;2022-10-31T06:40:03;20.63;;;11.52;;
48665;SDS011;34452;50.796;4.994;2022-10-31T06:44:55;49.05;;;15.80;;
48665;SDS011;34452;50.796;4.994;2022-10-31T06:47:21;31.25;;;12.55;;
48665;SDS011;34452;50.796;4.994;2022-10-31T06:49:47;61.17;;;17.67;;
48665;SDS011;34452;50.796;4.994;2022-10-31T06:52:12;32.33;;;13.40;;
48665;SDS011;34452;50.796;4.994;2022-10-31T06:54:38;24.42;;;12.98;;
48665;SDS011;34452;50.796;4.994;2022-10-31T06:57:04;24.63;;;11.90;;
48665;SDS011;34452;50.796;4.994;2022-10-31T06:59:29;25.20;;;10.90;;
48665;SDS011;34452;50.796;4.994;2022-10-31T07:01:57;26.02;;;12.57;;
48665;SDS011;34452;50.796;4.994;2022-10-31T07:04:22;29.52;;;13.15;;
48665;SDS011;34452;50.796;4.994;2022-10-31T07:09:17;34.28;;;13.50;;
48665;SDS011;34452;50.796;4.994;2022-10-31T07:11:43;34.55;;;14.75;;
48665;SDS011;34452;50.796;4.994;2022-10-31T07:14:09;31.07;;;15.13;;
48665;SDS011;34452;50.796;4.994;2022-10-31T07:16:35;33.43;;;15.13;;
48665;SDS011;34452;50.796;4.994;2022-10-31T07:19:00;24.80;;;13.47;;
48665;SDS011;34452;50.796;4.994;2022-10-31T07:21:26;20.63;;;12.13;;
48665;SDS011;34452;50.796;4.994;2022-10-31T07:23:52;28.92;;;13.02;;
48665;SDS011;34452;50.796;4.994;2022-10-31T07:26:17;22.60;;;12.50;;
48665;SDS011;34452;50.796;4.994;2022-10-31T07:28:43;22.57;;;12.67;;
48665;SDS011;34452;50.796;4.994;2022-10-31T07:31:10;34.20;;;15.20;;
48665;SDS011;34452;50.796;4.994;2022-10-31T07:33:36;28.67;;;11.70;;
48665;SDS011;34452;50.796;4.994;2022-10-31T07:36:01;24.38;;;11.50;;
48665;SDS011;34452;50.796;4.994;2022-10-31T07:38:27;23.67;;;12.90;;
48665;SDS011;34452;50.796;4.994;2022-10-31T07:40:53;22.33;;;11.03;;
48665;SDS011;34452;50.796;4.994;2022-10-31T07:43:19;20.67;;;11.07;;
48665;SDS011;34452;50.796;4.994;2022-10-31T07:45:54;21.58;;;11.10;;
48665;SDS011;34452;50.796;4.994;2022-10-31T07:48:20;22.00;;;11.30;;
48665;SDS011;34452;50.796;4.994;2022-10-31T07:50:46;27.92;;;13.93;;
48665;SDS011;34452;50.796;4.994;2022-10-31T07:53:12;24.85;;;13.02;;
48665;SDS011;34452;50.796;4.994;2022-10-31T07:55:38;27.63;;;13.00;;
48665;SDS011;34452;50.796;4.994;2022-10-31T07:58:05;22.25;;;11.23;;
48665;SDS011;34452;50.796;4.994;2022-10-31T08:00:33;27.02;;;14.18;;
48665;SDS011;34452;50.796;4.994;2022-10-31T08:03:00;31.02;;;15.80;;
48665;SDS011;34452;50.796;4.994;2022-10-31T08:05:31;34.33;;;15.80;;
48665;SDS011;34452;50.796;4.994;2022-10-31T08:07:57;28.80;;;15.60;;
48665;SDS011;34452;50.796;4.994;2022-10-31T08:10:24;30.73;;;15.02;;
48665;SDS011;34452;50.796;4.994;2022-10-31T08:15:30;29.20;;;15.00;;
48665;SDS011;34452;50.796;4.994;2022-10-31T08:17:56;24.77;;;15.00;;
48665;SDS011;34452;50.796;4.994;2022-10-31T08:20:22;34.15;;;13.88;;
48665;SDS011;34452;50.796;4.994;2022-10-31T08:23:00;26.95;;;13.85;;
48665;SDS011;34452;50.796;4.994;2022-10-31T08:25:28;29.05;;;15.95;;
48665;SDS011;34452;50.796;4.994;2022-10-31T08:27:56;34.10;;;15.15;;
48665;SDS011;34452;50.796;4.994;2022-10-31T08:30:24;24.48;;;13.82;;
48665;SDS011;34452;50.796;4.994;2022-10-31T08:32:59;29.08;;;15.32;;
48665;SDS011;34452;50.796;4.994;2022-10-31T08:35:25;41.17;;;16.80;;
48665;SDS011;34452;50.796;4.994;2022-10-31T08:37:54;33.83;;;16.50;;
48665;SDS011;34452;50.796;4.994;2022-10-31T08:40:21;32.90;;;16.23;;
48665;SDS011;34452;50.796;4.994;2022-10-31T08:45:12;30.95;;;15.52;;
48665;SDS011;34452;50.796;4.994;2022-10-31T08:47:38;34.10;;;14.90;;
48665;SDS011;34452;50.796;4.994;2022-10-31T08:50:04;30.30;;;15.57;;
48665;SDS011;34452;50.796;4.994;2022-10-31T08:52:30;41.72;;;19.13;;
48665;SDS011;34452;50.796;4.994;2022-10-31T08:54:56;30.17;;;16.70;;
48665;SDS011;34452;50.796;4.994;2022-10-31T08:57:21;31.45;;;15.82;;
48665;SDS011;34452;50.796;4.994;2022-10-31T08:59:47;30.40;;;15.90;;
48665;SDS011;34452;50.796;4.994;2022-10-31T09:02:13;30.43;;;15.97;;
48665;SDS011;34452;50.796;4.994;2022-10-31T09:04:38;34.58;;;15.90;;
48665;SDS011;34452;50.796;4.994;2022-10-31T09:07:04;31.35;;;15.57;;
48665;SDS011;34452;50.796;4.994;2022-10-31T09:09:30;35.70;;;16.42;;
48665;SDS011;34452;50.796;4.994;2022-10-31T09:11:55;31.63;;;17.00;;
48665;SDS011;34452;50.796;4.994;2022-10-31T09:14:21;27.60;;;13.97;;
48665;SDS011;34452;50.796;4.994;2022-10-31T09:16:47;32.17;;;14.60;;
48665;SDS011;34452;50.796;4.994;2022-10-31T09:19:12;24.35;;;13.50;;
48665;SDS011;34452;50.796;4.994;2022-10-31T09:21:38;30.53;;;14.87;;
48665;SDS011;34452;50.796;4.994;2022-10-31T09:24:04;33.93;;;14.97;;
48665;SDS011;34452;50.796;4.994;2022-10-31T09:26:30;34.17;;;15.23;;
48665;SDS011;34452;50.796;4.994;2022-10-31T09:28:55;26.63;;;13.80;;
48665;SDS011;34452;50.796;4.994;2022-10-31T09:31:23;27.60;;;15.93;;
48665;SDS011;34452;50.796;4.994;2022-10-31T09:33:49;32.67;;;17.23;;
48665;SDS011;34452;50.796;4.994;2022-10-31T09:36:14;26.50;;;15.03;;
48665;SDS011;34452;50.796;4.994;2022-10-31T09:38:40;31.80;;;15.73;;
48665;SDS011;34452;50.796;4.994;2022-10-31T09:46:48;30.08;;;15.60;;
48665;SDS011;34452;50.796;4.994;2022-10-31T09:49:37;40.35;;;15.70;;
48665;SDS011;34452;50.796;4.994;2022-10-31T09:52:16;49.50;;;16.67;;
48665;SDS011;34452;50.796;4.994;2022-10-31T09:55:03;37.67;;;15.40;;
48665;SDS011;34452;50.796;4.994;2022-10-31T09:57:37;28.52;;;15.25;;
48665;SDS011;34452;50.796;4.994;2022-10-31T10:00:04;26.15;;;13.65;;
48665;SDS011;34452;50.796;4.994;2022-10-31T10:02:38;22.00;;;12.02;;
48665;SDS011;34452;50.796;4.994;2022-10-31T10:05:28;20.90;;;12.80;;
48665;SDS011;34452;50.796;4.994;2022-10-31T10:08:05;19.40;;;11.43;;
48665;SDS011;34452;50.796;4.994;2022-10-31T10:15:54;22.45;;;11.45;;
48665;SDS011;34452;50.796;4.994;2022-10-31T10:21:20;25.23;;;13.52;;
48665;SDS011;34452;50.796;4.994;2022-10-31T10:23:58;23.10;;;10.55;;
48665;SDS011;34452;50.796;4.994;2022-10-31T10:26:37;21.88;;;10.00;;
48665;SDS011;34452;50.796;4.994;2022-10-31T10:29:17;27.35;;;11.25;;
48665;SDS011;34452;50.796;4.994;2022-10-31T10:31:58;25.40;;;9.25;;
48665;SDS011;34452;50.796;4.994;2022-10-31T10:34:39;19.98;;;9.50;;
48665;SDS011;34452;50.796;4.994;2022-10-31T10:37:17;13.52;;;8.95;;
48665;SDS011;34452;50.796;4.994;2022-10-31T10:39:55;17.35;;;8.23;;
48665;SDS011;34452;50.796;4.994;2022-10-31T10:42:26;18.80;;;7.82;;
48665;SDS011;34452;50.796;4.994;2022-10-31T10:45:16;18.80;;;7.10;;
48665;SDS011;34452;50.796;4.994;2022-10-31T10:51:06;17.52;;;7.05;;
48665;SDS011;34452;50.796;4.994;2022-10-31T10:53:53;19.60;;;8.13;;
48665;SDS011;34452;50.796;4.994;2022-10-31T10:59:11;13.82;;;7.47;;
48665;SDS011;34452;50.796;4.994;2022-10-31T11:01:40;20.77;;;8.40;;
48665;SDS011;34452;50.796;4.994;2022-10-31T11:07:04;15.13;;;7.15;;
48665;SDS011;34452;50.796;4.994;2022-10-31T11:09:30;21.38;;;7.45;;
48665;SDS011;34452;50.796;4.994;2022-10-31T11:11:56;18.38;;;6.97;;
48665;SDS011;34452;50.796;4.994;2022-10-31T11:14:23;16.23;;;7.75;;
48665;SDS011;34452;50.796;4.994;2022-10-31T11:19:36;13.30;;;6.93;;
48665;SDS011;34452;50.796;4.994;2022-10-31T11:22:05;18.15;;;7.95;;
48665;SDS011;34452;50.796;4.994;2022-10-31T11:24:36;14.77;;;7.45;;
48665;SDS011;34452;50.796;4.994;2022-10-31T11:27:11;22.10;;;7.65;;
48665;SDS011;34452;50.796;4.994;2022-10-31T11:29:46;19.63;;;7.00;;
48665;SDS011;34452;50.796;4.994;2022-10-31T11:32:30;20.10;;;7.68;;
48665;SDS011;34452;50.796;4.994;2022-10-31T11:34:57;16.38;;;6.38;;
48665;SDS011;34452;50.796;4.994;2022-10-31T11:37:27;14.63;;;7.15;;
48665;SDS011;34452;50.796;4.994;2022-10-31T11:39:56;15.32;;;7.28;;
48665;SDS011;34452;50.796;4.994;2022-10-31T11:42:29;15.75;;;6.82;;
48665;SDS011;34452;50.796;4.994;2022-10-31T11:45:16;21.70;;;7.38;;
48665;SDS011;34452;50.796;4.994;2022-10-31T11:47:48;17.98;;;6.68;;
48665;SDS011;34452;50.796;4.994;2022-10-31T11:50:19;15.75;;;7.05;;
48665;SDS011;34452;50.796;4.994;2022-10-31T11:52:54;15.02;;;7.13;;
48665;SDS011;34452;50.796;4.994;2022-10-31T11:55:33;14.32;;;6.95;;
48665;SDS011;34452;50.796;4.994;2022-10-31T11:58:01;15.55;;;6.95;;
48665;SDS011;34452;50.796;4.994;2022-10-31T12:00:28;11.20;;;6.47;;
48665;SDS011;34452;50.796;4.994;2022-10-31T12:05:42;18.23;;;7.18;;
48665;SDS011;34452;50.796;4.994;2022-10-31T12:08:12;19.55;;;7.40;;
48665;SDS011;34452;50.796;4.994;2022-10-31T12:10:42;21.08;;;7.55;;
48665;SDS011;34452;50.796;4.994;2022-10-31T12:13:35;13.70;;;7.68;;
48665;SDS011;34452;50.796;4.994;2022-10-31T12:16:07;21.92;;;7.28;;
48665;SDS011;34452;50.796;4.994;2022-10-31T12:23:59;13.18;;;6.30;;
48665;SDS011;34452;50.796;4.994;2022-10-31T12:32:40;17.05;;;7.80;;
48665;SDS011;34452;50.796;4.994;2022-10-31T12:38:11;20.70;;;8.02;;
48665;SDS011;34452;50.796;4.994;2022-10-31T12:40:54;21.02;;;8.07;;
48665;SDS011;34452;50.796;4.994;2022-10-31T12:46:27;20.90;;;8.57;;
48665;SDS011;34452;50.796;4.994;2022-10-31T12:57:23;22.20;;;8.70;;
48665;SDS011;34452;50.796;4.994;2022-10-31T12:59:53;16.23;;;9.15;;
48665;SDS011;34452;50.796;4.994;2022-10-31T13:05:13;20.52;;;9.93;;
48665;SDS011;34452;50.796;4.994;2022-10-31T13:07:58;23.98;;;10.98;;
48665;SDS011;34452;50.796;4.994;2022-10-31T13:10:36;25.08;;;10.30;;
48665;SDS011;34452;50.796;4.994;2022-10-31T13:13:18;21.83;;;10.75;;
48665;SDS011;34452;50.796;4.994;2022-10-31T13:16:01;20.90;;;10.05;;
48665;SDS011;34452;50.796;4.994;2022-10-31T13:18:42;20.40;;;10.07;;
48665;SDS011;34452;50.796;4.994;2022-10-31T13:21:16;30.65;;;10.57;;
48665;SDS011;34452;50.796;4.994;2022-10-31T13:23:49;23.02;;;10.27;;
48665;SDS011;34452;50.796;4.994;2022-10-31T13:29:08;23.10;;;10.10;;
48665;SDS011;34452;50.796;4.994;2022-10-31T13:31:49;27.77;;;10.93;;
48665;SDS011;34452;50.796;4.994;2022-10-31T13:43:28;24.85;;;9.27;;
48665;SDS011;34452;50.796;4.994;2022-10-31T13:46:00;19.83;;;8.73;;
48665;SDS011;34452;50.796;4.994;2022-10-31T13:48:39;22.55;;;10.63;;
48665;SDS011;34452;50.796;4.994;2022-10-31T13:51:08;26.15;;;9.90;;
48665;SDS011;34452;50.796;4.994;2022-10-31T13:56:18;25.10;;;10.27;;
48665;SDS011;34452;50.796;4.994;2022-10-31T13:58:59;25.27;;;10.07;;
48665;SDS011;34452;50.796;4.994;2022-10-31T14:01:26;15.68;;;8.25;;
48665;SDS011;34452;50.796;4.994;2022-10-31T14:07:25;22.10;;;9.40;;
48665;SDS011;34452;50.796;4.994;2022-10-31T14:12:05;20.17;;;9.15;;
48665;SDS011;34452;50.796;4.994;2022-10-31T14:14:42;17.83;;;8.15;;
48665;SDS011;34452;50.796;4.994;2022-10-31T14:17:18;16.73;;;7.28;;
48665;SDS011;34452;50.796;4.994;2022-10-31T14:19:57;18.30;;;6.90;;
48665;SDS011;34452;50.796;4.994;2022-10-31T14:22:36;18.95;;;6.28;;
48665;SDS011;34452;50.796;4.994;2022-10-31T14:28:00;17.38;;;7.50;;
48665;SDS011;34452;50.796;4.994;2022-10-31T14:30:28;20.45;;;7.13;;
48665;SDS011;34452;50.796;4.994;2022-10-31T14:32:57;10.73;;;5.88;;
48665;SDS011;34452;50.796;4.994;2022-10-31T14:35:29;17.75;;;7.18;;
48665;SDS011;34452;50.796;4.994;2022-10-31T14:41:08;14.18;;;6.80;;
48665;SDS011;34452;50.796;4.994;2022-10-31T14:49:02;15.90;;;6.38;;
48665;SDS011;34452;50.796;4.994;2022-10-31T14:51:50;14.98;;;7.20;;
48665;SDS011;34452;50.796;4.994;2022-10-31T14:54:19;16.85;;;7.00;;
48665;SDS011;34452;50.796;4.994;2022-10-31T14:57:05;16.58;;;6.78;;
48665;SDS011;34452;50.796;4.994;2022-10-31T14:59:52;14.30;;;6.75;;
48665;SDS011;34452;50.796;4.994;2022-10-31T15:02:29;21.65;;;7.00;;
48665;SDS011;34452;50.796;4.994;2022-10-31T15:05:08;16.95;;;6.88;;
48665;SDS011;34452;50.796;4.994;2022-10-31T15:07:36;12.48;;;7.25;;
48665;SDS011;34452;50.796;4.994;2022-10-31T15:10:06;15.63;;;6.45;;
48665;SDS011;34452;50.796;4.994;2022-10-31T15:12:44;12.65;;;5.78;;
48665;SDS011;34452;50.796;4.994;2022-10-31T15:15:11;14.10;;;5.50;;
48665;SDS011;34452;50.796;4.994;2022-10-31T15:17:43;12.98;;;5.30;;
48665;SDS011;34452;50.796;4.994;2022-10-31T15:20:17;13.15;;;5.65;;
48665;SDS011;34452;50.796;4.994;2022-10-31T15:22:48;15.85;;;4.25;;
48665;SDS011;34452;50.796;4.994;2022-10-31T15:27:42;13.88;;;3.28;;
48665;SDS011;34452;50.796;4.994;2022-10-31T15:32:44;10.75;;;4.18;;
48665;SDS011;34452;50.796;4.994;2022-10-31T15:35:14;13.90;;;3.80;;
48665;SDS011;34452;50.796;4.994;2022-10-31T15:37:51;13.80;;;4.28;;
48665;SDS011;34452;50.796;4.994;2022-10-31T15:40:18;14.82;;;3.38;;
48665;SDS011;34452;50.796;4.994;2022-10-31T15:42:56;7.47;;;2.65;;
48665;SDS011;34452;50.796;4.994;2022-10-31T15:45:29;10.40;;;3.70;;
48665;SDS011;34452;50.796;4.994;2022-10-31T15:47:57;10.80;;;3.60;;
48665;SDS011;34452;50.796;4.994;2022-10-31T15:50:30;15.20;;;3.35;;
48665;SDS011;34452;50.796;4.994;2022-10-31T15:52:56;14.10;;;3.40;;
48665;SDS011;34452;50.796;4.994;2022-10-31T15:55:26;12.07;;;3.45;;
48665;SDS011;34452;50.796;4.994;2022-10-31T15:58:01;9.07;;;3.20;;
48665;SDS011;34452;50.796;4.994;2022-10-31T16:03:03;13.23;;;4.07;;
48665;SDS011;34452;50.796;4.994;2022-10-31T16:10:55;12.93;;;3.22;;
48665;SDS011;34452;50.796;4.994;2022-10-31T16:13:26;8.10;;;3.30;;
48665;SDS011;34452;50.796;4.994;2022-10-31T16:16:02;11.85;;;3.42;;
48665;SDS011;34452;50.796;4.994;2022-10-31T16:18:36;10.18;;;3.95;;
48665;SDS011;34452;50.796;4.994;2022-10-31T16:21:03;13.40;;;4.78;;
48665;SDS011;34452;50.796;4.994;2022-10-31T16:25:55;14.40;;;3.38;;
48665;SDS011;34452;50.796;4.994;2022-10-31T16:28:22;16.52;;;4.55;;
48665;SDS011;34452;50.796;4.994;2022-10-31T16:30:51;12.15;;;4.13;;
48665;SDS011;34452;50.796;4.994;2022-10-31T16:35:57;11.75;;;3.75;;
48665;SDS011;34452;50.796;4.994;2022-10-31T16:38:23;16.35;;;4.03;;
48665;SDS011;34452;50.796;4.994;2022-10-31T16:40:50;15.18;;;4.18;;
48665;SDS011;34452;50.796;4.994;2022-10-31T16:43:17;8.18;;;3.67;;
48665;SDS011;34452;50.796;4.994;2022-10-31T16:45:45;14.63;;;3.70;;
48665;SDS011;34452;50.796;4.994;2022-10-31T16:48:13;15.95;;;4.03;;
48665;SDS011;34452;50.796;4.994;2022-10-31T16:50:43;13.50;;;3.92;;
48665;SDS011;34452;50.796;4.994;2022-10-31T16:53:11;17.48;;;4.40;;
48665;SDS011;34452;50.796;4.994;2022-10-31T16:58:16;17.00;;;4.70;;
48665;SDS011;34452;50.796;4.994;2022-10-31T17:00:54;9.82;;;3.17;;
48665;SDS011;34452;50.796;4.994;2022-10-31T17:03:20;10.70;;;3.53;;
48665;SDS011;34452;50.796;4.994;2022-10-31T17:05:46;16.20;;;4.13;;
48665;SDS011;34452;50.796;4.994;2022-10-31T17:08:12;8.38;;;3.45;;
48665;SDS011;34452;50.796;4.994;2022-10-31T17:10:38;17.02;;;3.42;;
48665;SDS011;34452;50.796;4.994;2022-10-31T17:13:06;14.32;;;3.88;;
48665;SDS011;34452;50.796;4.994;2022-10-31T17:15:41;9.70;;;3.83;;
48665;SDS011;34452;50.796;4.994;2022-10-31T17:18:14;15.35;;;3.60;;
48665;SDS011;34452;50.796;4.994;2022-10-31T17:20:41;17.40;;;4.03;;
48665;SDS011;34452;50.796;4.994;2022-10-31T17:23:08;14.50;;;3.95;;
48665;SDS011;34452;50.796;4.994;2022-10-31T17:25:38;15.55;;;4.03;;